sensor_id;sensor_type;location;lat;lon;timestamp;temperature;humidity
58096;DHT22;43908;53.038;6.666;2022-10-23T00:03:43;9.50;99.90
58096;DHT22;43908;53.038;6.666;2022-10-23T00:06:09;9.50;99.90
58096;DHT22;43908;53.038;6.666;2022-10-23T00:08:36;9.60;99.90
58096;DHT22;43908;53.038;6.666;2022-10-23T00:11:12;9.60;99.90
58096;DHT22;43908;53.038;6.666;2022-10-23T00:13:38;9.60;99.90
58096;DHT22;43908;53.038;6.666;2022-10-23T00:16:04;9.60;99.90
58096;DHT22;43908;53.038;6.666;2022-10-23T00:18:30;9.50;99.90
58096;DHT22;43908;53.038;6.666;2022-10-23T00:20:55;9.50;99.90
58096;DHT22;43908;53.038;6.666;2022-10-23T00:23:21;9.50;99.90
58096;DHT22;43908;53.038;6.666;2022-10-23T00:25:46;9.60;99.90
58096;DHT22;43908;53.038;6.666;2022-10-23T00:28:12;9.50;99.90
58096;DHT22;43908;53.038;6.666;2022-10-23T00:30:37;9.50;99.90
58096;DHT22;43908;53.038;6.666;2022-10-23T00:33:03;9.60;99.90
58096;DHT22;43908;53.038;6.666;2022-10-23T00:35:28;9.50;99.90
58096;DHT22;43908;53.038;6.666;2022-10-23T00:37:53;9.60;99.90
58096;DHT22;43908;53.038;6.666;2022-10-23T00:40:19;9.60;99.90
58096;DHT22;43908;53.038;6.666;2022-10-23T00:42:44;9.60;99.90
58096;DHT22;43908;53.038;6.666;2022-10-23T00:45:20;9.60;99.90
58096;DHT22;43908;53.038;6.666;2022-10-23T00:47:46;9.60;99.90
58096;DHT22;43908;53.038;6.666;2022-10-23T00:50:12;9.50;99.90
58096;DHT22;43908;53.038;6.666;2022-10-23T00:52:40;9.60;99.90
58096;DHT22;43908;53.038;6.666;2022-10-23T00:55:06;9.50;99.90
58096;DHT22;43908;53.038;6.666;2022-10-23T00:57:32;9.50;99.90
58096;DHT22;43908;53.038;6.666;2022-10-23T00:59:57;9.50;99.90
58096;DHT22;43908;53.038;6.666;2022-10-23T01:02:23;9.50;99.90
58096;DHT22;43908;53.038;6.666;2022-10-23T01:04:48;9.50;99.90
58096;DHT22;43908;53.038;6.666;2022-10-23T01:07:19;9.50;99.90
58096;DHT22;43908;53.038;6.666;2022-10-23T01:09:53;9.40;99.90
58096;DHT22;43908;53.038;6.666;2022-10-23T01:12:25;9.40;99.90
58096;DHT22;43908;53.038;6.666;2022-10-23T01:14:56;9.40;99.90
58096;DHT22;43908;53.038;6.666;2022-10-23T01:17:33;9.40;99.90
58096;DHT22;43908;53.038;6.666;2022-10-23T01:20:20;9.40;99.90
58096;DHT22;43908;53.038;6.666;2022-10-23T01:27:59;9.30;99.90
58096;DHT22;43908;53.038;6.666;2022-10-23T01:30:25;9.30;99.90
58096;DHT22;43908;53.038;6.666;2022-10-23T01:33:01;9.30;99.90
58096;DHT22;43908;53.038;6.666;2022-10-23T01:35:32;9.30;99.90
58096;DHT22;43908;53.038;6.666;2022-10-23T01:38:05;9.30;99.90
58096;DHT22;43908;53.038;6.666;2022-10-23T01:40:35;9.20;99.90
58096;DHT22;43908;53.038;6.666;2022-10-23T01:43:03;9.20;99.90
58096;DHT22;43908;53.038;6.666;2022-10-23T01:45:38;9.20;99.90
58096;DHT22;43908;53.038;6.666;2022-10-23T01:48:04;9.20;99.90
58096;DHT22;43908;53.038;6.666;2022-10-23T01:50:31;9.20;99.90
58096;DHT22;43908;53.038;6.666;2022-10-23T01:52:57;9.20;99.90
58096;DHT22;43908;53.038;6.666;2022-10-23T01:55:23;9.20;99.90
58096;DHT22;43908;53.038;6.666;2022-10-23T01:57:49;9.10;99.90
58096;DHT22;43908;53.038;6.666;2022-10-23T02:00:15;9.20;99.90
58096;DHT22;43908;53.038;6.666;2022-10-23T02:02:41;9.20;99.90
58096;DHT22;43908;53.038;6.666;2022-10-23T02:05:09;9.20;99.90
58096;DHT22;43908;53.038;6.666;2022-10-23T02:07:36;9.20;99.90
58096;DHT22;43908;53.038;6.666;2022-10-23T02:10:03;9.20;99.90
58096;DHT22;43908;53.038;6.666;2022-10-23T02:12:39;9.20;99.90
58096;DHT22;43908;53.038;6.666;2022-10-23T02:15:08;9.20;99.90
58096;DHT22;43908;53.038;6.666;2022-10-23T02:20:06;9.40;99.90
58096;DHT22;43908;53.038;6.666;2022-10-23T02:22:39;9.50;99.90
58096;DHT22;43908;53.038;6.666;2022-10-23T02:25:13;9.50;99.90
58096;DHT22;43908;53.038;6.666;2022-10-23T02:27:41;9.60;99.90
58096;DHT22;43908;53.038;6.666;2022-10-23T02:30:07;9.70;99.90
58096;DHT22;43908;53.038;6.666;2022-10-23T02:32:34;9.60;99.90
58096;DHT22;43908;53.038;6.666;2022-10-23T02:35:00;9.60;99.90
58096;DHT22;43908;53.038;6.666;2022-10-23T02:37:25;9.60;99.90
58096;DHT22;43908;53.038;6.666;2022-10-23T02:39:51;9.60;99.90
58096;DHT22;43908;53.038;6.666;2022-10-23T02:42:17;9.60;99.90
58096;DHT22;43908;53.038;6.666;2022-10-23T02:55:04;9.80;99.90
58096;DHT22;43908;53.038;6.666;2022-10-23T02:57:39;9.80;99.90
58096;DHT22;43908;53.038;6.666;2022-10-23T03:00:07;9.80;99.90
58096;DHT22;43908;53.038;6.666;2022-10-23T03:02:36;9.80;99.90
58096;DHT22;43908;53.038;6.666;2022-10-23T03:05:02;9.70;99.90
58096;DHT22;43908;53.038;6.666;2022-10-23T03:07:29;9.70;99.90
58096;DHT22;43908;53.038;6.666;2022-10-23T03:09:54;9.70;99.90
58096;DHT22;43908;53.038;6.666;2022-10-23T03:12:20;9.70;99.90
58096;DHT22;43908;53.038;6.666;2022-10-23T03:14:45;9.60;99.90
58096;DHT22;43908;53.038;6.666;2022-10-23T03:17:11;9.60;99.90
58096;DHT22;43908;53.038;6.666;2022-10-23T03:19:36;9.50;99.90
58096;DHT22;43908;53.038;6.666;2022-10-23T03:22:02;9.60;99.90
58096;DHT22;43908;53.038;6.666;2022-10-23T03:24:27;9.60;99.90
58096;DHT22;43908;53.038;6.666;2022-10-23T03:26:53;9.60;99.90
58096;DHT22;43908;53.038;6.666;2022-10-23T03:29:18;9.50;99.90
58096;DHT22;43908;53.038;6.666;2022-10-23T03:31:44;9.50;99.90
58096;DHT22;43908;53.038;6.666;2022-10-23T03:34:09;9.50;99.90
58096;DHT22;43908;53.038;6.666;2022-10-23T03:36:36;9.50;99.90
58096;DHT22;43908;53.038;6.666;2022-10-23T03:39:02;9.50;99.90
58096;DHT22;43908;53.038;6.666;2022-10-23T03:41:28;9.50;99.90
58096;DHT22;43908;53.038;6.666;2022-10-23T03:43:54;9.50;99.90
58096;DHT22;43908;53.038;6.666;2022-10-23T03:46:19;9.50;99.90
58096;DHT22;43908;53.038;6.666;2022-10-23T03:48:45;9.50;99.90
58096;DHT22;43908;53.038;6.666;2022-10-23T03:51:10;9.50;99.90
58096;DHT22;43908;53.038;6.666;2022-10-23T03:53:36;9.50;99.90
58096;DHT22;43908;53.038;6.666;2022-10-23T03:56:01;9.50;99.90
58096;DHT22;43908;53.038;6.666;2022-10-23T03:58:27;9.60;99.90
58096;DHT22;43908;53.038;6.666;2022-10-23T04:00:52;9.60;99.90
58096;DHT22;43908;53.038;6.666;2022-10-23T04:03:18;9.50;99.90
58096;DHT22;43908;53.038;6.666;2022-10-23T04:05:43;9.60;99.90
58096;DHT22;43908;53.038;6.666;2022-10-23T04:08:09;9.50;99.90
58096;DHT22;43908;53.038;6.666;2022-10-23T04:10:34;9.50;99.90
58096;DHT22;43908;53.038;6.666;2022-10-23T04:13:00;9.50;99.90
58096;DHT22;43908;53.038;6.666;2022-10-23T04:15:25;9.60;99.90
58096;DHT22;43908;53.038;6.666;2022-10-23T04:17:51;9.70;99.90
58096;DHT22;43908;53.038;6.666;2022-10-23T04:20:16;9.70;99.90
58096;DHT22;43908;53.038;6.666;2022-10-23T04:22:42;9.70;99.90
58096;DHT22;43908;53.038;6.666;2022-10-23T04:25:07;9.70;99.90
58096;DHT22;43908;53.038;6.666;2022-10-23T04:27:33;9.80;99.90
58096;DHT22;43908;53.038;6.666;2022-10-23T04:29:59;9.80;99.90
58096;DHT22;43908;53.038;6.666;2022-10-23T04:32:25;9.70;99.90
58096;DHT22;43908;53.038;6.666;2022-10-23T04:34:50;9.60;99.90
58096;DHT22;43908;53.038;6.666;2022-10-23T04:37:16;9.60;99.90
58096;DHT22;43908;53.038;6.666;2022-10-23T04:39:41;9.70;99.90
58096;DHT22;43908;53.038;6.666;2022-10-23T04:42:06;9.70;99.90
58096;DHT22;43908;53.038;6.666;2022-10-23T04:44:32;9.60;99.90
58096;DHT22;43908;53.038;6.666;2022-10-23T04:46:57;9.70;99.90
58096;DHT22;43908;53.038;6.666;2022-10-23T04:49:23;9.60;99.90
58096;DHT22;43908;53.038;6.666;2022-10-23T04:51:48;9.60;99.90
58096;DHT22;43908;53.038;6.666;2022-10-23T04:54:14;9.50;99.90
58096;DHT22;43908;53.038;6.666;2022-10-23T04:56:39;9.50;99.90
58096;DHT22;43908;53.038;6.666;2022-10-23T04:59:05;9.50;99.90
58096;DHT22;43908;53.038;6.666;2022-10-23T05:01:30;9.50;99.90
58096;DHT22;43908;53.038;6.666;2022-10-23T05:03:56;9.50;99.90
58096;DHT22;43908;53.038;6.666;2022-10-23T05:06:21;9.40;99.90
58096;DHT22;43908;53.038;6.666;2022-10-23T05:08:47;9.50;99.90
58096;DHT22;43908;53.038;6.666;2022-10-23T05:11:12;9.40;99.90
58096;DHT22;43908;53.038;6.666;2022-10-23T05:13:38;9.40;99.90
58096;DHT22;43908;53.038;6.666;2022-10-23T05:16:03;9.40;99.90
58096;DHT22;43908;53.038;6.666;2022-10-23T05:18:47;9.40;99.90
58096;DHT22;43908;53.038;6.666;2022-10-23T05:21:14;9.40;99.90
58096;DHT22;43908;53.038;6.666;2022-10-23T05:23:40;9.40;99.90
58096;DHT22;43908;53.038;6.666;2022-10-23T05:26:06;9.30;99.90
58096;DHT22;43908;53.038;6.666;2022-10-23T05:28:32;9.30;99.90
58096;DHT22;43908;53.038;6.666;2022-10-23T05:30:58;9.20;99.90
58096;DHT22;43908;53.038;6.666;2022-10-23T05:33:25;9.30;99.90
58096;DHT22;43908;53.038;6.666;2022-10-23T05:35:50;9.30;99.90
58096;DHT22;43908;53.038;6.666;2022-10-23T05:38:16;9.30;99.90
58096;DHT22;43908;53.038;6.666;2022-10-23T05:40:42;9.30;99.90
58096;DHT22;43908;53.038;6.666;2022-10-23T05:43:07;9.30;99.90
58096;DHT22;43908;53.038;6.666;2022-10-23T05:45:33;9.30;99.90
58096;DHT22;43908;53.038;6.666;2022-10-23T05:47:58;9.30;99.90
58096;DHT22;43908;53.038;6.666;2022-10-23T05:50:24;9.30;99.90
58096;DHT22;43908;53.038;6.666;2022-10-23T05:52:49;9.20;99.90
58096;DHT22;43908;53.038;6.666;2022-10-23T05:55:15;9.20;99.90
58096;DHT22;43908;53.038;6.666;2022-10-23T05:57:40;9.20;99.90
58096;DHT22;43908;53.038;6.666;2022-10-23T06:00:06;9.20;99.90
58096;DHT22;43908;53.038;6.666;2022-10-23T06:02:32;9.20;99.90
58096;DHT22;43908;53.038;6.666;2022-10-23T06:04:58;9.20;99.90
58096;DHT22;43908;53.038;6.666;2022-10-23T06:07:24;9.40;99.90
58096;DHT22;43908;53.038;6.666;2022-10-23T06:09:50;9.40;99.90
58096;DHT22;43908;53.038;6.666;2022-10-23T06:12:15;9.40;99.90
58096;DHT22;43908;53.038;6.666;2022-10-23T06:14:41;9.40;99.90
58096;DHT22;43908;53.038;6.666;2022-10-23T06:17:06;9.40;99.90
58096;DHT22;43908;53.038;6.666;2022-10-23T06:19:32;9.50;99.90
58096;DHT22;43908;53.038;6.666;2022-10-23T06:21:57;9.50;99.90
58096;DHT22;43908;53.038;6.666;2022-10-23T06:24:23;9.60;99.90
58096;DHT22;43908;53.038;6.666;2022-10-23T06:26:48;9.50;99.90
58096;DHT22;43908;53.038;6.666;2022-10-23T06:29:14;9.60;99.90
58096;DHT22;43908;53.038;6.666;2022-10-23T06:31:39;9.60;99.90
58096;DHT22;43908;53.038;6.666;2022-10-23T06:34:05;9.60;99.90
58096;DHT22;43908;53.038;6.666;2022-10-23T06:36:30;9.60;99.90
58096;DHT22;43908;53.038;6.666;2022-10-23T06:38:56;9.60;99.90
58096;DHT22;43908;53.038;6.666;2022-10-23T06:41:21;9.60;99.90
58096;DHT22;43908;53.038;6.666;2022-10-23T06:43:47;9.70;99.90
58096;DHT22;43908;53.038;6.666;2022-10-23T06:46:13;9.70;99.90
58096;DHT22;43908;53.038;6.666;2022-10-23T06:48:40;9.70;99.90
58096;DHT22;43908;53.038;6.666;2022-10-23T06:51:06;9.80;99.90
58096;DHT22;43908;53.038;6.666;2022-10-23T06:53:32;9.90;99.90
58096;DHT22;43908;53.038;6.666;2022-10-23T06:56:01;9.90;99.90
58096;DHT22;43908;53.038;6.666;2022-10-23T06:58:27;9.90;99.90
58096;DHT22;43908;53.038;6.666;2022-10-23T07:00:52;9.90;99.90
58096;DHT22;43908;53.038;6.666;2022-10-23T07:03:18;10.00;99.90
58096;DHT22;43908;53.038;6.666;2022-10-23T07:05:44;10.00;99.90
58096;DHT22;43908;53.038;6.666;2022-10-23T07:08:12;10.00;99.90
58096;DHT22;43908;53.038;6.666;2022-10-23T07:10:37;10.10;99.90
58096;DHT22;43908;53.038;6.666;2022-10-23T07:13:07;10.10;99.90
58096;DHT22;43908;53.038;6.666;2022-10-23T07:15:33;10.20;99.90
58096;DHT22;43908;53.038;6.666;2022-10-23T07:17:59;10.20;99.90
58096;DHT22;43908;53.038;6.666;2022-10-23T07:20:24;10.20;99.90
58096;DHT22;43908;53.038;6.666;2022-10-23T07:22:50;10.30;99.90
58096;DHT22;43908;53.038;6.666;2022-10-23T07:25:16;10.30;99.90
58096;DHT22;43908;53.038;6.666;2022-10-23T07:27:41;10.40;99.90
58096;DHT22;43908;53.038;6.666;2022-10-23T07:30:07;10.40;99.90
58096;DHT22;43908;53.038;6.666;2022-10-23T07:32:33;10.50;99.90
58096;DHT22;43908;53.038;6.666;2022-10-23T07:34:58;10.50;99.90
58096;DHT22;43908;53.038;6.666;2022-10-23T07:37:24;10.60;99.90
58096;DHT22;43908;53.038;6.666;2022-10-23T07:39:49;10.60;99.90
58096;DHT22;43908;53.038;6.666;2022-10-23T07:42:15;10.70;99.90
58096;DHT22;43908;53.038;6.666;2022-10-23T07:44:40;10.70;99.90
58096;DHT22;43908;53.038;6.666;2022-10-23T07:47:06;10.70;99.90
58096;DHT22;43908;53.038;6.666;2022-10-23T07:49:31;10.80;99.90
58096;DHT22;43908;53.038;6.666;2022-10-23T07:51:56;10.80;99.90
58096;DHT22;43908;53.038;6.666;2022-10-23T07:54:23;10.80;99.90
58096;DHT22;43908;53.038;6.666;2022-10-23T07:56:48;10.90;99.90
58096;DHT22;43908;53.038;6.666;2022-10-23T07:59:14;11.00;99.90
58096;DHT22;43908;53.038;6.666;2022-10-23T08:01:39;11.00;99.90
58096;DHT22;43908;53.038;6.666;2022-10-23T08:04:07;11.10;99.90
58096;DHT22;43908;53.038;6.666;2022-10-23T08:06:33;11.10;99.90
58096;DHT22;43908;53.038;6.666;2022-10-23T08:08:59;11.20;99.90
58096;DHT22;43908;53.038;6.666;2022-10-23T08:11:25;11.30;99.90
58096;DHT22;43908;53.038;6.666;2022-10-23T08:13:52;11.30;99.90
58096;DHT22;43908;53.038;6.666;2022-10-23T08:16:19;11.30;99.90
58096;DHT22;43908;53.038;6.666;2022-10-23T08:18:45;11.40;99.90
58096;DHT22;43908;53.038;6.666;2022-10-23T08:21:12;11.50;99.90
58096;DHT22;43908;53.038;6.666;2022-10-23T08:23:37;11.50;99.90
58096;DHT22;43908;53.038;6.666;2022-10-23T08:26:04;11.60;99.90
58096;DHT22;43908;53.038;6.666;2022-10-23T08:28:30;11.60;99.90
58096;DHT22;43908;53.038;6.666;2022-10-23T08:30:55;11.70;99.90
58096;DHT22;43908;53.038;6.666;2022-10-23T08:33:21;11.70;99.90
58096;DHT22;43908;53.038;6.666;2022-10-23T08:35:47;11.80;99.90
58096;DHT22;43908;53.038;6.666;2022-10-23T08:38:12;11.90;99.90
58096;DHT22;43908;53.038;6.666;2022-10-23T08:40:38;11.90;99.90
58096;DHT22;43908;53.038;6.666;2022-10-23T08:45:42;12.10;99.90
58096;DHT22;43908;53.038;6.666;2022-10-23T08:48:17;12.20;99.90
58096;DHT22;43908;53.038;6.666;2022-10-23T08:50:46;12.30;99.90
58096;DHT22;43908;53.038;6.666;2022-10-23T08:55:52;12.40;99.90
58096;DHT22;43908;53.038;6.666;2022-10-23T09:00:45;12.50;99.90
58096;DHT22;43908;53.038;6.666;2022-10-23T09:03:11;12.60;99.90
58096;DHT22;43908;53.038;6.666;2022-10-23T09:08:28;12.70;99.90
58096;DHT22;43908;53.038;6.666;2022-10-23T09:11:09;12.80;99.90
58096;DHT22;43908;53.038;6.666;2022-10-23T09:14:20;12.80;99.90
58096;DHT22;43908;53.038;6.666;2022-10-23T09:18:50;13.00;99.90
58096;DHT22;43908;53.038;6.666;2022-10-23T09:21:16;13.00;99.90
58096;DHT22;43908;53.038;6.666;2022-10-23T09:23:41;13.10;99.90
58096;DHT22;43908;53.038;6.666;2022-10-23T09:26:14;13.20;99.90
58096;DHT22;43908;53.038;6.666;2022-10-23T09:28:56;13.30;99.90
58096;DHT22;43908;53.038;6.666;2022-10-23T09:31:26;13.40;99.90
58096;DHT22;43908;53.038;6.666;2022-10-23T09:33:56;13.50;99.90
58096;DHT22;43908;53.038;6.666;2022-10-23T09:36:22;13.50;99.90
58096;DHT22;43908;53.038;6.666;2022-10-23T09:38:49;13.60;99.90
58096;DHT22;43908;53.038;6.666;2022-10-23T09:41:24;13.70;99.90
58096;DHT22;43908;53.038;6.666;2022-10-23T09:46:41;13.80;99.90
58096;DHT22;43908;53.038;6.666;2022-10-23T09:49:16;13.80;99.90
58096;DHT22;43908;53.038;6.666;2022-10-23T09:51:50;13.90;99.90
58096;DHT22;43908;53.038;6.666;2022-10-23T09:54:16;13.90;99.90
58096;DHT22;43908;53.038;6.666;2022-10-23T09:56:46;14.00;99.90
58096;DHT22;43908;53.038;6.666;2022-10-23T10:01:50;14.00;99.90
58096;DHT22;43908;53.038;6.666;2022-10-23T10:04:16;14.10;99.90
58096;DHT22;43908;53.038;6.666;2022-10-23T10:06:42;14.10;99.90
58096;DHT22;43908;53.038;6.666;2022-10-23T10:09:12;14.20;99.90
58096;DHT22;43908;53.038;6.666;2022-10-23T10:11:40;14.30;99.90
58096;DHT22;43908;53.038;6.666;2022-10-23T10:16:49;14.40;99.90
58096;DHT22;43908;53.038;6.666;2022-10-23T10:19:25;14.50;99.90
58096;DHT22;43908;53.038;6.666;2022-10-23T10:24:24;14.60;99.90
58096;DHT22;43908;53.038;6.666;2022-10-23T10:29:22;14.90;99.90
58096;DHT22;43908;53.038;6.666;2022-10-23T10:35:08;15.10;99.90
58096;DHT22;43908;53.038;6.666;2022-10-23T10:40:00;15.20;99.90
58096;DHT22;43908;53.038;6.666;2022-10-23T10:50:09;15.50;99.90
58096;DHT22;43908;53.038;6.666;2022-10-23T10:52:47;15.50;99.90
58096;DHT22;43908;53.038;6.666;2022-10-23T10:57:49;15.60;99.90
58096;DHT22;43908;53.038;6.666;2022-10-23T11:00:20;15.60;99.90
58096;DHT22;43908;53.038;6.666;2022-10-23T11:02:47;15.60;99.90
58096;DHT22;43908;53.038;6.666;2022-10-23T11:05:25;15.60;99.90
58096;DHT22;43908;53.038;6.666;2022-10-23T11:10:32;15.50;99.90
58096;DHT22;43908;53.038;6.666;2022-10-23T11:12:57;15.60;99.90
58096;DHT22;43908;53.038;6.666;2022-10-23T11:15:39;15.60;99.90
58096;DHT22;43908;53.038;6.666;2022-10-23T11:18:11;15.60;99.90
58096;DHT22;43908;53.038;6.666;2022-10-23T11:20:48;15.60;99.90
58096;DHT22;43908;53.038;6.666;2022-10-23T11:26:02;15.50;99.90
58096;DHT22;43908;53.038;6.666;2022-10-23T11:39:06;15.50;99.90
58096;DHT22;43908;53.038;6.666;2022-10-23T11:41:45;15.50;99.90
58096;DHT22;43908;53.038;6.666;2022-10-23T11:52:33;15.40;99.90
58096;DHT22;43908;53.038;6.666;2022-10-23T11:58:20;15.40;99.90
58096;DHT22;43908;53.038;6.666;2022-10-23T12:00:51;15.50;99.90
58096;DHT22;43908;53.038;6.666;2022-10-23T12:03:18;15.50;99.90
58096;DHT22;43908;53.038;6.666;2022-10-23T12:05:44;15.50;99.90
58096;DHT22;43908;53.038;6.666;2022-10-23T12:08:21;15.50;99.90
58096;DHT22;43908;53.038;6.666;2022-10-23T12:10:47;15.50;99.90
58096;DHT22;43908;53.038;6.666;2022-10-23T12:16:02;15.60;99.90
58096;DHT22;43908;53.038;6.666;2022-10-23T12:18:27;15.60;99.90
58096;DHT22;43908;53.038;6.666;2022-10-23T12:20:54;15.60;99.90
58096;DHT22;43908;53.038;6.666;2022-10-23T12:23:33;15.60;99.90
58096;DHT22;43908;53.038;6.666;2022-10-23T12:31:01;15.70;99.90
58096;DHT22;43908;53.038;6.666;2022-10-23T12:33:34;15.70;99.90
58096;DHT22;43908;53.038;6.666;2022-10-23T12:36:15;15.80;99.90
58096;DHT22;43908;53.038;6.666;2022-10-23T12:38:47;15.80;99.90
58096;DHT22;43908;53.038;6.666;2022-10-23T12:43:43;15.90;99.90
58096;DHT22;43908;53.038;6.666;2022-10-23T12:46:20;15.80;99.90
58096;DHT22;43908;53.038;6.666;2022-10-23T12:48:47;15.80;99.90
58096;DHT22;43908;53.038;6.666;2022-10-23T12:51:15;15.90;99.90
58096;DHT22;43908;53.038;6.666;2022-10-23T12:53:47;15.80;99.90
58096;DHT22;43908;53.038;6.666;2022-10-23T12:56:12;15.80;99.90
58096;DHT22;43908;53.038;6.666;2022-10-23T12:58:38;15.80;99.90
58096;DHT22;43908;53.038;6.666;2022-10-23T13:01:20;15.80;99.90
58096;DHT22;43908;53.038;6.666;2022-10-23T13:03:46;15.80;99.90
58096;DHT22;43908;53.038;6.666;2022-10-23T13:06:12;15.80;99.90
58096;DHT22;43908;53.038;6.666;2022-10-23T13:08:39;15.90;99.90
58096;DHT22;43908;53.038;6.666;2022-10-23T13:11:06;15.90;99.90
58096;DHT22;43908;53.038;6.666;2022-10-23T13:13:33;15.90;99.90
58096;DHT22;43908;53.038;6.666;2022-10-23T13:15:59;15.90;99.90
58096;DHT22;43908;53.038;6.666;2022-10-23T13:18:24;15.90;99.90
58096;DHT22;43908;53.038;6.666;2022-10-23T13:23:16;15.90;99.90
58096;DHT22;43908;53.038;6.666;2022-10-23T13:25:51;15.90;99.90
58096;DHT22;43908;53.038;6.666;2022-10-23T13:28:59;16.00;99.90
58096;DHT22;43908;53.038;6.666;2022-10-23T13:33:38;16.00;99.90
58096;DHT22;43908;53.038;6.666;2022-10-23T13:38:33;16.00;99.90
58096;DHT22;43908;53.038;6.666;2022-10-23T13:41:00;16.00;99.90
58096;DHT22;43908;53.038;6.666;2022-10-23T13:43:26;16.00;99.90
58096;DHT22;43908;53.038;6.666;2022-10-23T13:45:52;16.00;99.90
58096;DHT22;43908;53.038;6.666;2022-10-23T13:48:17;16.00;99.90
58096;DHT22;43908;53.038;6.666;2022-10-23T13:50:44;16.00;99.90
58096;DHT22;43908;53.038;6.666;2022-10-23T13:53:13;16.00;99.90
58096;DHT22;43908;53.038;6.666;2022-10-23T13:55:40;16.00;99.90
58096;DHT22;43908;53.038;6.666;2022-10-23T13:58:07;16.00;99.90
58096;DHT22;43908;53.038;6.666;2022-10-23T14:00:33;15.90;99.90
58096;DHT22;43908;53.038;6.666;2022-10-23T14:02:58;15.90;99.90
58096;DHT22;43908;53.038;6.666;2022-10-23T14:05:23;15.90;99.90
58096;DHT22;43908;53.038;6.666;2022-10-23T14:07:49;15.90;99.90
58096;DHT22;43908;53.038;6.666;2022-10-23T14:10:14;15.90;99.90
58096;DHT22;43908;53.038;6.666;2022-10-23T14:12:40;15.90;99.90
58096;DHT22;43908;53.038;6.666;2022-10-23T14:15:06;15.90;99.90
58096;DHT22;43908;53.038;6.666;2022-10-23T14:17:32;15.80;99.90
58096;DHT22;43908;53.038;6.666;2022-10-23T14:19:58;15.80;99.90
58096;DHT22;43908;53.038;6.666;2022-10-23T14:22:23;15.80;99.90
58096;DHT22;43908;53.038;6.666;2022-10-23T14:24:49;15.80;99.90
58096;DHT22;43908;53.038;6.666;2022-10-23T14:27:14;15.80;99.90
58096;DHT22;43908;53.038;6.666;2022-10-23T14:29:40;15.70;99.90
58096;DHT22;43908;53.038;6.666;2022-10-23T14:32:06;15.70;99.90
58096;DHT22;43908;53.038;6.666;2022-10-23T14:34:31;15.70;99.90
58096;DHT22;43908;53.038;6.666;2022-10-23T14:36:57;15.70;99.90
58096;DHT22;43908;53.038;6.666;2022-10-23T14:39:22;15.70;99.90
58096;DHT22;43908;53.038;6.666;2022-10-23T14:41:48;15.60;99.90
58096;DHT22;43908;53.038;6.666;2022-10-23T14:44:13;15.70;99.90
58096;DHT22;43908;53.038;6.666;2022-10-23T14:46:39;15.60;99.90
58096;DHT22;43908;53.038;6.666;2022-10-23T14:49:04;15.60;99.90
58096;DHT22;43908;53.038;6.666;2022-10-23T14:51:30;15.60;99.90
58096;DHT22;43908;53.038;6.666;2022-10-23T14:53:57;15.60;99.90
58096;DHT22;43908;53.038;6.666;2022-10-23T14:56:24;15.60;99.90
58096;DHT22;43908;53.038;6.666;2022-10-23T14:58:49;15.60;99.90
58096;DHT22;43908;53.038;6.666;2022-10-23T15:01:15;15.60;99.90
58096;DHT22;43908;53.038;6.666;2022-10-23T15:03:40;15.60;99.90
58096;DHT22;43908;53.038;6.666;2022-10-23T15:06:07;15.60;99.90
58096;DHT22;43908;53.038;6.666;2022-10-23T15:08:32;15.60;99.90
58096;DHT22;43908;53.038;6.666;2022-10-23T15:10:58;15.70;99.90
58096;DHT22;43908;53.038;6.666;2022-10-23T15:13:24;15.70;99.90
58096;DHT22;43908;53.038;6.666;2022-10-23T15:15:50;15.70;99.90
58096;DHT22;43908;53.038;6.666;2022-10-23T15:18:24;15.70;99.90
58096;DHT22;43908;53.038;6.666;2022-10-23T15:20:51;15.70;99.90
58096;DHT22;43908;53.038;6.666;2022-10-23T15:23:17;15.60;99.90
58096;DHT22;43908;53.038;6.666;2022-10-23T15:25:42;15.60;99.90
58096;DHT22;43908;53.038;6.666;2022-10-23T15:28:08;15.60;99.90
58096;DHT22;43908;53.038;6.666;2022-10-23T15:30:33;15.60;99.90
58096;DHT22;43908;53.038;6.666;2022-10-23T15:32:59;15.60;99.90
58096;DHT22;43908;53.038;6.666;2022-10-23T15:35:24;15.60;99.90
58096;DHT22;43908;53.038;6.666;2022-10-23T15:37:49;15.60;99.90
58096;DHT22;43908;53.038;6.666;2022-10-23T15:40:15;15.50;99.90
58096;DHT22;43908;53.038;6.666;2022-10-23T15:42:40;15.50;99.90
58096;DHT22;43908;53.038;6.666;2022-10-23T15:45:06;15.50;99.90
58096;DHT22;43908;53.038;6.666;2022-10-23T15:47:32;15.60;99.90
58096;DHT22;43908;53.038;6.666;2022-10-23T15:49:57;15.50;99.90
58096;DHT22;43908;53.038;6.666;2022-10-23T15:52:23;15.50;99.90
58096;DHT22;43908;53.038;6.666;2022-10-23T15:54:48;15.50;99.90
58096;DHT22;43908;53.038;6.666;2022-10-23T15:57:13;15.50;99.90
58096;DHT22;43908;53.038;6.666;2022-10-23T15:59:39;15.40;99.90
58096;DHT22;43908;53.038;6.666;2022-10-23T16:02:04;15.40;99.90
58096;DHT22;43908;53.038;6.666;2022-10-23T16:04:30;15.40;99.90
58096;DHT22;43908;53.038;6.666;2022-10-23T16:06:56;15.30;99.90
58096;DHT22;43908;53.038;6.666;2022-10-23T16:09:21;15.30;99.90
58096;DHT22;43908;53.038;6.666;2022-10-23T16:11:47;15.20;99.90
58096;DHT22;43908;53.038;6.666;2022-10-23T16:14:13;15.20;99.90
58096;DHT22;43908;53.038;6.666;2022-10-23T16:16:40;15.20;99.90
58096;DHT22;43908;53.038;6.666;2022-10-23T16:19:06;15.10;99.90
58096;DHT22;43908;53.038;6.666;2022-10-23T16:21:32;15.00;99.90
58096;DHT22;43908;53.038;6.666;2022-10-23T16:23:58;15.00;99.90
58096;DHT22;43908;53.038;6.666;2022-10-23T16:26:24;15.00;99.90
58096;DHT22;43908;53.038;6.666;2022-10-23T16:28:54;14.90;99.90
58096;DHT22;43908;53.038;6.666;2022-10-23T16:31:20;14.90;99.90
58096;DHT22;43908;53.038;6.666;2022-10-23T16:33:47;14.80;99.90
58096;DHT22;43908;53.038;6.666;2022-10-23T16:36:13;14.80;99.90
58096;DHT22;43908;53.038;6.666;2022-10-23T16:38:38;14.80;99.90
58096;DHT22;43908;53.038;6.666;2022-10-23T16:41:04;14.70;99.90
58096;DHT22;43908;53.038;6.666;2022-10-23T16:43:29;14.70;99.90
58096;DHT22;43908;53.038;6.666;2022-10-23T16:48:30;14.60;99.90
58096;DHT22;43908;53.038;6.666;2022-10-23T16:50:56;14.60;99.90
58096;DHT22;43908;53.038;6.666;2022-10-23T16:53:22;14.60;99.90
58096;DHT22;43908;53.038;6.666;2022-10-23T16:55:49;14.60;99.90
58096;DHT22;43908;53.038;6.666;2022-10-23T16:58:15;14.60;99.90
58096;DHT22;43908;53.038;6.666;2022-10-23T17:00:40;14.50;99.90
58096;DHT22;43908;53.038;6.666;2022-10-23T17:03:06;14.50;99.90
58096;DHT22;43908;53.038;6.666;2022-10-23T17:05:32;14.40;99.90
58096;DHT22;43908;53.038;6.666;2022-10-23T17:07:57;14.30;99.90
58096;DHT22;43908;53.038;6.666;2022-10-23T17:10:23;14.30;99.90
58096;DHT22;43908;53.038;6.666;2022-10-23T17:12:48;14.30;99.90
58096;DHT22;43908;53.038;6.666;2022-10-23T17:15:14;14.30;99.90
58096;DHT22;43908;53.038;6.666;2022-10-23T17:17:39;14.30;99.90
58096;DHT22;43908;53.038;6.666;2022-10-23T17:20:05;14.20;99.90
58096;DHT22;43908;53.038;6.666;2022-10-23T17:22:30;14.20;99.90
58096;DHT22;43908;53.038;6.666;2022-10-23T17:24:56;14.20;99.90
58096;DHT22;43908;53.038;6.666;2022-10-23T17:27:22;14.20;99.90